Terminal Aerodrome Forecast
Issued by NWS Grand Forks, ND

Home | Current Version | Previous Version | Graphics & Text | Print | Product List | Glossary On
Versions: 1 2 3 4 5 6 7 8 9 10 11 12 13 14 15 16 17 18
000
FTUS43 KFGF 211135
TAFGFK
TAF
KGFK 211135Z 2112/2212 17014KT P6SM SCT110
     FM211500 22013G22KT P6SM FEW040 SCT150
     FM211800 26014G24KT P6SM SCT030 BKN040
     FM212200 26013G23KT P6SM BKN030
     FM220100 25010KT P6SM SCT030 BKN050=

USA.gov is the U.S. government's official web portal to all federal, state and local government web resources and services.